North Welton, Iowa
Current Conditions -  °F | °C
As of 8:55 AM on Sunday 21 Dec 2014 (Local Time) from KCWI Reporting Station
Overcast Overcast  
Wind Chill: 28°   Ceiling: 2900
Heat Index: 36°   Visibility: 4mi
Dew Point: 32°   Wind: 10mph
Humidity: 87%   Direction: 170°S
Pressure: 30.14"   Gusts: 16mph
Location:  41.989°N, 90.6068°W
Report Text: KCWI 211455Z AUTO 17009G14KT 4SM BKN029 OVC034 02/00 A3014 RMK AO1 57003
Loading
Personal Weather Stations






























Interactive Weather Map New forecast layout! Learn more

10-Day Weather Forecast

Advertisements
Track Severe Weather on mobile